Blue Level, Kentucky
Current Conditions -  °F | °C
As of 10:17 PM on Wednesday 26 Nov 2014 (Local Time) from KBWG Reporting Station
Light Rain Light Rain  
Wind Chill: 37°   Ceiling: 1100
Heat Index: 37°   Visibility: 6mi
Dew Point: 34°   Wind: 3mph
Humidity: 89%   Direction: 260°W
Pressure: 30.04"   Gusts: NA
Location:  36.9519°N, 86.6076°W
Report Text: KBWG 270417Z AUTO 26003KT 6SM -RA BR OVC011 03/01 A3004 RMK AO2 UPB06E07 P0001 T00280011
Loading
Personal Weather Stations






























Interactive Weather Map New forecast layout! Learn more

10-Day Weather Forecast

Advertisements
Track Severe Weather on mobile